Map

Track Data

SID SEASON NUMBER BASIN SUBBASIN NAME ISO_TIME NATURE LAT LON WMO_WIND WMO_PRES WMO_AGENCY TRACK_TYPE DIST2LAND LANDFALL IFLAG USA_AGENCY USA_ATCF_ID USA_LAT USA_LON USA_RECORD USA_STATUS USA_WIND USA_PRES USA_SSHS USA_R34_NE USA_R34_SE USA_R34_SW USA_R34_NW USA_R50_NE USA_R50_SE USA_R50_SW USA_R50_NW USA_R64_NE USA_R64_SE USA_R64_SW USA_R64_NW USA_POCI USA_ROCI USA_RMW USA_EYE TOKYO_LAT TOKYO_LON TOKYO_GRADE TOKYO_WIND TOKYO_PRES TOKYO_R50_DIR TOKYO_R50_LONG TOKYO_R50_SHORT TOKYO_R30_DIR TOKYO_R30_LONG TOKYO_R30_SHORT TOKYO_LAND CMA_LAT CMA_LON CMA_CAT CMA_WIND CMA_PRES HKO_LAT HKO_LON HKO_CAT HKO_WIND HKO_PRES NEWDELHI_LAT NEWDELHI_LON NEWDELHI_GRADE NEWDELHI_WIND NEWDELHI_PRES NEWDELHI_CI NEWDELHI_DP NEWDELHI_POCI REUNION_LAT REUNION_LON REUNION_TYPE REUNION_WIND REUNION_PRES REUNION_TNUM REUNION_CI REUNION_RMW REUNION_R34_NE REUNION_R34_SE REUNION_R34_SW REUNION_R34_NW REUNION_R50_NE REUNION_R50_SE REUNION_R50_SW REUNION_R50_NW REUNION_R64_NE REUNION_R64_SE REUNION_R64_SW REUNION_R64_NW BOM_LAT BOM_LON BOM_TYPE BOM_WIND BOM_PRES BOM_TNUM BOM_CI BOM_RMW BOM_R34_NE BOM_R34_SE BOM_R34_SW BOM_R34_NW BOM_R50_NE BOM_R50_SE BOM_R50_SW BOM_R50_NW BOM_R64_NE BOM_R64_SE BOM_R64_SW BOM_R64_NW BOM_ROCI BOM_POCI BOM_EYE BOM_POS_METHOD BOM_PRES_METHOD NADI_LAT NADI_LON NADI_CAT NADI_WIND NADI_PRES WELLINGTON_LAT WELLINGTON_LON WELLINGTON_WIND WELLINGTON_PRES DS824_LAT DS824_LON DS824_STAGE DS824_WIND DS824_PRES TD9636_LAT TD9636_LON TD9636_STAGE TD9636_WIND TD9636_PRES TD9635_LAT TD9635_LON TD9635_WIND TD9635_PRES TD9635_ROCI NEUMANN_LAT NEUMANN_LON NEUMANN_CLASS NEUMANN_WIND NEUMANN_PRES MLC_LAT MLC_LON MLC_CLASS MLC_WIND MLC_PRES USA_GUST BOM_GUST BOM_GUST_PER REUNION_GUST REUNION_GUST_PER USA_SEAHGT USA_SEARAD_NE USA_SEARAD_SE USA_SEARAD_SW USA_SEARAD_NW STORM_SPEED STORM_DIR
1946016S15148 1946 5 SP EA NOT_NAMED 1946-01-15 23:00:00 NR -15.0000 148.100 bom main 291 291 ______O_______ -1 -15.0000 148.100 1 0
1946016S15148 1946 5 SP EA NOT_NAMED 1946-01-16 00:00:00 TS -15.0209 148.111 main 291 290 ______P__O____ -1 -15.0313 148.116 -15.0000 148.100 TC 2 153
1946016S15148 1946 5 SP EA NOT_NAMED 1946-01-16 03:00:00 TS -15.1166 148.154 main 301 300 ______P__P____ -1 -15.1255 148.166 -15.1031 148.137 TC 2 155
1946016S15148 1946 5 SP EA NOT_NAMED 1946-01-16 06:00:00 TS -15.2148 148.198 main 300 300 ______P__P____ -1 -15.2204 148.215 -15.2072 148.176 TC 2 159
1946016S15148 1946 5 SP EA NOT_NAMED 1946-01-16 09:00:00 TS -15.3148 148.241 main 300 300 ______P__P____ -1 -15.3167 148.264 -15.3130 148.217 TC 2 157
1946016S15148 1946 5 SP EA NOT_NAMED 1946-01-16 12:00:00 TS -15.4182 148.288 main 309 306 ______P__P____ -1 -15.4148 148.314 -15.4215 148.262 TC 2 155
1946016S15148 1946 5 SP EA NOT_NAMED 1946-01-16 15:00:00 TS -15.5245 148.338 main 306 306 ______P__P____ -1 -15.5154 148.364 -15.5335 148.311 TC 2 156
1946016S15148 1946 5 SP EA NOT_NAMED 1946-01-16 18:00:00 TS -15.6346 148.391 main 309 303 ______P__P____ -1 -15.6191 148.415 -15.6501 148.367 TC 2 155
1946016S15148 1946 5 SP EA NOT_NAMED 1946-01-16 21:00:00 TS -15.7491 148.447 main 303 303 ______P__P____ -1 -15.7263 148.466 -15.7719 148.429 TC 3 153
1946016S15148 1946 5 SP EA NOT_NAMED 1946-01-16 23:00:00 TS -15.8283 148.488 bom main 308 303 ______O__P____ -1 -15.8000 148.500 -15.8566 148.475 TC 3 156
1946016S15148 1946 5 SP EA NOT_NAMED 1946-01-17 00:00:00 TS -15.8688 148.509 main 303 303 ______P__O____ -1 -15.8376 148.517 -15.9000 148.500 TC 3 154
1946016S15148 1946 5 SP EA NOT_NAMED 1946-01-17 03:00:00 TS -15.9955 148.575 main 308 303 ______P__P____ -1 -15.9556 148.570 -16.0355 148.580 TC 3 153
1946016S15148 1946 5 SP EA NOT_NAMED 1946-01-17 06:00:00 TS -16.1329 148.646 main 303 302 ______P__P____ -1 -16.0852 148.626 -16.1806 148.667 TC 3 153
1946016S15148 1946 5 SP EA NOT_NAMED 1946-01-17 09:00:00 TS -16.2850 148.723 main 302 302 ______P__P____ -1 -16.2319 148.687 -16.3380 148.758 TC 4 154
1946016S15148 1946 5 SP EA NOT_NAMED 1946-01-17 12:00:00 TS -16.4557 148.804 main 304 304 ______P__P____ -1 -16.4010 148.755 -16.5103 148.852 TC 4 156
1946016S15148 1946 5 SP EA NOT_NAMED 1946-01-17 15:00:00 TS -16.6490 148.889 main 310 305 ______P__P____ -1 -16.5979 148.833 -16.7000 148.945 TC 4 158
1946016S15148 1946 5 SP EA NOT_NAMED 1946-01-17 18:00:00 TS -16.8689 148.979 main 313 311 ______P__P____ -1 -16.8281 148.921 -16.9098 149.036 TC 5 160
1946016S15148 1946 5 SP EA NOT_NAMED 1946-01-17 21:00:00 TS -17.1195 149.073 main 313 295 ______P__P____ -1 -17.0968 149.024 -17.1423 149.122 TC 6 161
1946016S15148 1946 5 SP EA NOT_NAMED 1946-01-17 23:00:00 TS -17.3056 149.137 999 bom main 295 293 ______O__P____ -1 -17.3000 149.100 999 4 -17.3111 149.175 TC 6 157
1946016S15148 1946 5 SP EA NOT_NAMED 1946-01-18 00:00:00 TS -17.3923 149.193 main 293 282 ______P__O____ -1 -17.3847 149.186 -17.4000 149.200 TC 30 999 6 148
1946016S15148 1946 5 SP EA NOT_NAMED 1946-01-18 03:00:00 TS -17.6716 149.372 main 282 256 ______P__P____ -1 -17.6583 149.476 -17.6849 149.269 TC 7 150
1946016S15148 1946 5 SP EA NOT_NAMED 1946-01-18 06:00:00 TS -17.9827 149.555 main 262 240 ______P__P____ -1 -17.9699 149.783 -17.9954 149.328 TC 7 153
1946016S15148 1946 5 SP EA NOT_NAMED 1946-01-18 09:00:00 TS -18.3300 149.725 main 240 212 ______P__P____ -1 -18.3308 150.071 -18.3293 149.379 TC 8 158
1946016S15148 1946 5 SP EA NOT_NAMED 1946-01-18 12:00:00 TS -18.7184 149.863 main 212 176 ______P__P____ -1 -18.7525 150.304 -18.6842 149.423 TC 9 165
1946016S15148 1946 5 SP EA NOT_NAMED 1946-01-18 15:00:00 TS -19.1523 149.952 main 175 147 ______P__P____ -1 -19.2468 150.445 -19.0578 149.459 TC 9 173
1946016S15148 1946 5 SP EA NOT_NAMED 1946-01-18 18:00:00 TS -19.6366 149.973 main 147 113 ______P__P____ -1 -19.8254 150.456 -19.4478 149.490 TC 10 182
1946016S15148 1946 5 SP EA NOT_NAMED 1946-01-18 21:00:00 TS -20.1760 149.908 bom main 109 91 ______O__P____ -1 -20.5000 150.300 -19.8519 149.516 TC 11 189
1946016S15148 1946 5 SP EA NOT_NAMED 1946-01-18 23:00:00 TS -20.5640 149.816 bom main 83 76 ______O__P____ -1 -21.0000 150.100 -20.1279 149.531 TC 12 193
1946016S15148 1946 5 SP EA NOT_NAMED 1946-01-19 00:00:00 TS -20.7379 149.777 main 76 51 ______P__P____ -1 -21.2081 150.017 -20.2677 149.538 TC 9 191
1946016S15148 1946 5 SP EA NOT_NAMED 1946-01-19 03:00:00 TS -21.1700 149.698 main 47 32 ______P__P____ -1 -21.6473 149.840 -20.6927 149.556 TC 8 187
1946016S15148 1946 5 SP EA NOT_NAMED 1946-01-19 06:00:00 TS -21.5550 149.669 main 31 30 ______P__P____ -1 -21.8777 149.742 -21.1247 149.572 TC 7 184
1946016S15148 1946 5 SP EA NOT_NAMED 1946-01-19 09:00:00 TS -21.8456 149.652 main 30 15 ______P__P____ -1 -21.9878 149.685 -21.5613 149.587 TC 5 184
1946016S15148 1946 5 SP EA NOT_NAMED 1946-01-19 12:00:00 TS -22.0527 149.621 main 10 10 ______P__O____ -1 -22.0658 149.627 -22.0000 149.600 TC 4 187
1946016S15148 1946 5 SP EA NOT_NAMED 1946-01-19 13:00:00 NR -22.1000 149.600 bom main 10 0 ______O_______ -1 -22.1000 149.600 TC 3 212
1946016S15148 1946 5 SP EA NOT_NAMED 1946-01-19 15:00:00 NR -22.1945 149.530 main 0 0 ______P_______ -1 -22.1945 149.530 TC 4 214
1946016S15148 1946 5 SP EA NOT_NAMED 1946-01-19 18:00:00 NR -22.3908 149.389 main 0 0 ______P_______ -1 -22.3908 149.389 TC 5 213
1946016S15148 1946 5 SP EA NOT_NAMED 1946-01-19 21:00:00 NR -22.6297 149.220 main 0 0 ______P_______ -1 -22.6297 149.220 TC 6 213
1946016S15148 1946 5 SP EA NOT_NAMED 1946-01-19 23:00:00 NR -22.8000 149.100 bom main 0 ______O_______ -1 -22.8000 149.100 TC 6 214

Digital Typhoon Data and Search

About IBTrACS Database

This database is a web-friendly format of International Best Track Archive for Climate Stewardship (IBTrACS), a global best track data archive curated by NOAA dating back to 1842.

Updated: 2021-11-26